Time;durP1;ratioP1;P1;durP2;ratioP2;P2;SDS_P1;SDS_P2;PMS_P1;PMS_P2;Temp;Humidity;BMP_temperature;BMP_pressure;BME280_temperature;BME280_humidity;BME280_pressure;Samples;Min_cycle;Max_cycle;Signal;HPM_P1;HPM_P2
2024/04/04 00:00:06;;;;;;;1.77;1.27;;;;;;;10.99;56.76;93350.59;520049;28;856;-71
2024/04/04 00:00:21;;;;;;;1.77;1.38;;;;;;;11.01;56.71;93356.31;521521;28;858;-71
2024/04/04 00:00:44;;;;;;;1.47;1.37;;;;;;;11.01;57.08;93353.56;520117;28;805;-71
2024/04/04 00:01:00;;;;;;;1.88;1.33;;;;;;;10.97;57.19;93361.47;520039;28;805;-71
2024/04/04 00:01:16;;;;;;;1.45;1.25;;;;;;;10.91;57.07;93356.16;521007;28;860;-71
2024/04/04 00:01:31;;;;;;;1.73;1.30;;;;;;;10.83;57.74;93352.63;522008;28;806;-71
2024/04/04 00:01:48;;;;;;;2.50;1.20;;;;;;;10.76;57.62;93355.41;522089;28;844;-71
2024/04/04 00:02:03;;;;;;;2.33;1.10;;;;;;;10.75;58.00;93360.19;522090;28;868;-71
2024/04/04 00:02:19;;;;;;;1.42;1.10;;;;;;;10.76;58.08;93356.16;521837;28;982;-71
2024/04/04 00:02:34;;;;;;;1.23;1.13;;;;;;;10.78;58.06;93363.88;522085;28;847;-71
2024/04/04 00:02:50;;;;;;;1.42;1.30;;;;;;;10.80;57.86;93359.28;522105;28;864;-71
2024/04/04 00:03:06;;;;;;;1.55;1.30;;;;;;;10.83;58.00;93362.97;521863;28;1689;-71
2024/04/04 00:03:21;;;;;;;1.60;1.17;;;;;;;10.84;57.88;93359.66;520724;28;872;-71
2024/04/04 00:03:37;;;;;;;1.55;1.10;;;;;;;10.87;57.54;93366.09;519987;28;871;-72
2024/04/04 00:03:53;;;;;;;1.73;1.15;;;;;;;10.86;57.70;93357.06;520022;28;805;-72
2024/04/04 00:04:08;;;;;;;1.53;1.00;;;;;;;10.89;57.68;93358.00;521926;28;1204;-71
2024/04/04 00:04:24;;;;;;;2.38;0.82;;;;;;;10.90;57.36;93364.97;522021;28;895;-70
2024/04/04 00:04:39;;;;;;;2.70;1.10;;;;;;;10.89;57.54;93366.28;522028;28;982;-70
2024/04/04 00:05:02;;;;;;;1.92;1.20;;;;;;;10.86;57.55;93359.09;522037;28;887;-70
2024/04/04 00:05:17;;;;;;;2.03;0.93;;;;;;;10.59;57.69;93328.31;521444;28;792;-70
2024/04/04 00:05:33;;;;;;;2.72;1.15;;;;;;;10.77;57.62;93363.13;520443;28;1180;-70
2024/04/04 00:05:50;;;;;;;3.00;1.30;;;;;;;10.73;57.19;93356.50;522115;28;813;-70
2024/04/04 00:06:06;;;;;;;2.20;1.30;;;;;;;10.69;57.28;93362.41;520922;28;1756;-71
2024/04/04 00:06:23;;;;;;;1.17;1.07;;;;;;;10.65;57.47;93357.22;520005;28;867;-71
2024/04/04 00:06:38;;;;;;;0.98;0.88;;;;;;;10.64;57.37;93358.53;521967;28;883;-71
2024/04/04 00:06:54;;;;;;;1.58;1.10;;;;;;;10.64;57.42;93357.78;522042;28;804;-70
2024/04/04 00:07:10;;;;;;;2.00;1.50;;;;;;;10.64;57.27;93361.28;521843;28;942;-70
2024/04/04 00:07:25;;;;;;;2.30;1.40;;;;;;;10.65;57.30;93365.50;522001;28;811;-70
2024/04/04 00:07:41;;;;;;;2.63;1.13;;;;;;;10.66;57.64;93358.72;522033;28;819;-70
2024/04/04 00:07:56;;;;;;;1.85;1.05;;;;;;;10.66;57.46;93369.75;522094;28;1060;-70
2024/04/04 00:08:11;;;;;;;1.73;1.17;;;;;;;10.64;57.61;93372.34;522043;28;777;-71
2024/04/04 00:08:27;;;;;;;1.77;1.15;;;;;;;10.40;58.14;93336.97;521914;28;867;-71
2024/04/04 00:08:42;;;;;;;1.83;1.10;;;;;;;10.54;57.79;93365.16;522066;28;796;-71
2024/04/04 00:08:58;;;;;;;2.05;1.10;;;;;;;10.50;57.77;93370.31;521696;28;1048;-70
2024/04/04 00:09:14;;;;;;;1.83;1.10;;;;;;;10.43;57.80;93357.22;522143;28;777;-70
2024/04/04 00:09:29;;;;;;;1.92;1.15;;;;;;;10.45;58.04;93368.44;521192;28;1414;-70
2024/04/04 00:09:45;;;;;;;1.33;1.00;;;;;;;10.43;58.05;93360.72;521571;28;871;-70
2024/04/04 00:10:01;;;;;;;0.80;0.80;;;;;;;10.44;57.94;93366.97;522113;28;792;-71
2024/04/04 00:10:16;;;;;;;0.70;0.70;;;;;;;10.43;57.84;93366.25;521027;28;1658;-71
2024/04/04 00:10:32;;;;;;;0.80;0.70;;;;;;;10.44;58.12;93362.19;521702;28;828;-71
2024/04/04 00:10:48;;;;;;;1.00;0.63;;;;;;;10.44;58.05;93362.19;522058;28;843;-71
2024/04/04 00:11:10;;;;;;;0.75;0.70;;;;;;;10.41;57.79;93359.78;521922;28;1211;-70
2024/04/04 00:11:26;;;;;;;1.10;1.02;;;;;;;10.36;58.12;93364.19;522042;28;825;-70
2024/04/04 00:11:42;;;;;;;0.87;0.87;;;;;;;10.30;58.20;93363.66;521972;28;902;-71
2024/04/04 00:11:57;;;;;;;0.90;0.80;;;;;;;10.25;58.32;93359.03;521876;28;852;-70
2024/04/04 00:12:13;;;;;;;1.05;0.90;;;;;;;10.21;58.07;93363.44;521901;28;855;-70
2024/04/04 00:12:28;;;;;;;1.57;0.90;;;;;;;10.18;58.50;93364.53;519800;28;848;-70
2024/04/04 00:12:44;;;;;;;1.73;0.95;;;;;;;10.13;58.88;93368.19;521042;28;1085;-71
2024/04/04 00:13:01;;;;;;;3.73;1.03;;;;;;;10.04;59.21;93352.88;520916;28;1591;-71
2024/04/04 00:13:17;;;;;;;3.75;1.02;;;;;;;10.06;59.52;93355.84;519599;28;1927;-71
2024/04/04 00:13:32;;;;;;;1.13;0.90;;;;;;;10.03;60.00;93364.47;519923;28;895;-72
2024/04/04 00:13:48;;;;;;;0.90;0.80;;;;;;;10.00;59.93;93360.03;519921;28;856;-72
2024/04/04 00:14:05;;;;;;;0.95;0.85;;;;;;;9.99;59.77;93367.56;521897;28;872;-72
2024/04/04 00:14:21;;;;;;;1.30;1.05;;;;;;;9.97;59.61;93356.34;521780;28;1076;-71
2024/04/04 00:14:36;;;;;;;1.40;1.20;;;;;;;9.94;59.18;93362.94;521889;28;831;-72
2024/04/04 00:14:52;;;;;;;1.50;1.10;;;;;;;9.76;59.57;93328.16;522052;28;848;-71
2024/04/04 00:15:08;;;;;;;2.47;1.20;;;;;;;9.90;59.40;93355.03;522035;28;915;-72
2024/04/04 00:15:23;;;;;;;2.10;1.13;;;;;;;9.91;59.72;93358.53;522030;28;1052;-72
2024/04/04 00:15:39;;;;;;;2.17;1.10;;;;;;;9.86;59.84;93359.44;522091;28;867;-71
2024/04/04 00:15:55;;;;;;;1.65;0.82;;;;;;;9.86;59.55;93353.91;521523;28;1487;-71
2024/04/04 00:16:11;;;;;;;0.65;0.60;;;;;;;9.89;59.62;93352.84;521162;28;800;-72
2024/04/04 00:16:26;;;;;;;0.80;0.77;;;;;;;9.91;59.70;93356.53;520131;28;1673;-72
2024/04/04 00:16:42;;;;;;;0.95;0.93;;;;;;;9.95;59.48;93356.16;522062;28;817;-72
2024/04/04 00:16:57;;;;;;;0.90;0.90;;;;;;;9.99;59.43;93353.03;521889;28;765;-71
2024/04/04 00:17:13;;;;;;;1.03;1.00;;;;;;;10.01;59.16;93355.97;520024;28;895;-72
2024/04/04 00:17:28;;;;;;;1.20;1.10;;;;;;;10.04;59.41;93352.88;519770;28;1140;-72
2024/04/04 00:17:46;;;;;;;1.37;1.00;;;;;;;10.07;59.35;93357.28;521854;28;1262;-72
2024/04/04 00:18:02;;;;;;;1.38;1.00;;;;;;;10.10;59.21;93355.47;522041;28;1604;-72
2024/04/04 00:18:17;;;;;;;1.00;0.90;;;;;;;10.12;59.47;93355.69;521973;28;852;-72
2024/04/04 00:18:33;;;;;;;1.10;1.00;;;;;;;10.14;59.22;93358.63;522112;28;784;-72
2024/04/04 00:18:48;;;;;;;1.48;1.02;;;;;;;10.14;59.24;93359.38;521975;28;1569;-72
2024/04/04 00:19:04;;;;;;;1.97;0.90;;;;;;;10.13;59.20;93352.38;522064;28;796;-71
2024/04/04 00:19:19;;;;;;;1.30;0.77;;;;;;;10.13;59.40;93352.38;521790;28;1064;-72
2024/04/04 00:19:35;;;;;;;0.73;0.73;;;;;;;10.14;59.33;93355.88;521975;28;772;-72
2024/04/04 00:19:50;;;;;;;1.27;0.88;;;;;;;10.15;59.02;93349.06;522097;28;777;-72
2024/04/04 00:20:06;;;;;;;2.10;0.90;;;;;;;10.16;59.14;93351.28;521942;28;830;-71
2024/04/04 00:20:22;;;;;;;2.33;1.00;;;;;;;10.17;58.90;93355.53;521086;28;1721;-71
2024/04/04 00:20:39;;;;;;;2.07;1.20;;;;;;;10.18;58.90;93353.50;520027;28;910;-71
2024/04/04 00:20:54;;;;;;;1.88;1.20;;;;;;;10.17;59.16;93355.53;521848;28;953;-71
2024/04/04 00:21:10;;;;;;;2.45;1.05;;;;;;;10.15;59.00;93346.31;521970;28;864;-71
2024/04/04 00:21:25;;;;;;;2.03;0.90;;;;;;;10.18;59.05;93354.22;521948;28;826;-72
2024/04/04 00:21:41;;;;;;;1.80;0.95;;;;;;;10.19;58.96;93350.19;522011;28;903;-71
2024/04/04 00:21:56;;;;;;;1.50;1.20;;;;;;;10.21;58.51;93352.41;522046;28;772;-71
2024/04/04 00:22:11;;;;;;;1.38;1.20;;;;;;;10.23;58.83;93352.56;522066;28;875;-71
2024/04/04 00:22:27;;;;;;;1.57;1.10;;;;;;;10.24;58.40;93352.06;520910;28;887;-71
2024/04/04 00:22:43;;;;;;;1.60;0.90;;;;;;;10.26;58.41;93354.25;522172;28;816;-72
2024/04/04 00:22:58;;;;;;;1.50;0.93;;;;;;;10.28;58.62;93354.44;521956;28;800;-71
2024/04/04 00:23:14;;;;;;;1.75;1.00;;;;;;;10.30;58.37;93358.13;522006;28;880;-71
2024/04/04 00:23:29;;;;;;;1.23;0.90;;;;;;;10.31;58.47;93350.59;522027;28;793;-71
2024/04/04 00:23:45;;;;;;;1.23;0.88;;;;;;;10.32;58.37;93352.06;521976;28;841;-71
2024/04/04 00:24:00;;;;;;;1.80;1.10;;;;;;;10.32;58.46;93350.03;522097;28;812;-71
2024/04/04 00:24:16;;;;;;;1.70;1.05;;;;;;;10.33;58.23;93351.50;521530;28;1689;-71
2024/04/04 00:24:31;;;;;;;1.43;0.90;;;;;;;10.32;58.16;93346.53;520986;28;848;-71
2024/04/04 00:24:47;;;;;;;1.25;0.95;;;;;;;10.29;58.42;93347.63;520320;28;1041;-72
2024/04/04 00:25:02;;;;;;;1.50;0.90;;;;;;;10.24;58.45;93349.28;522047;28;856;-73
2024/04/04 00:25:18;;;;;;;3.30;1.00;;;;;;;10.22;58.88;93351.84;521552;28;856;-71
2024/04/04 00:25:33;;;;;;;3.07;1.13;;;;;;;10.22;58.68;93356.63;519939;28;896;-71
2024/04/04 00:25:49;;;;;;;1.67;1.00;;;;;;;10.23;58.74;93349.81;521813;28;1072;-71
2024/04/04 00:26:04;;;;;;;1.23;0.90;;;;;;;10.24;58.74;93351.31;522057;28;863;-71
2024/04/04 00:26:20;;;;;;;1.90;1.10;;;;;;;10.25;58.18;93355.53;522002;28;840;-71
2024/04/04 00:26:35;;;;;;;2.70;1.03;;;;;;;10.27;58.48;93347.44;521940;28;863;-71
2024/04/04 00:26:51;;;;;;;2.00;1.00;;;;;;;10.29;58.52;93342.84;522064;28;840;-71
2024/04/04 00:27:06;;;;;;;1.33;1.03;;;;;;;10.30;58.30;93352.59;521940;28;1159;-71
2024/04/04 00:27:22;;;;;;;0.93;0.88;;;;;;;10.33;58.26;93354.25;521793;28;1020;-71
2024/04/04 00:27:37;;;;;;;0.70;0.70;;;;;;;10.34;58.17;93355.00;522029;28;832;-71
2024/04/04 00:27:53;;;;;;;0.70;0.70;;;;;;;10.36;58.25;93349.66;522084;28;902;-71
2024/04/04 00:28:09;;;;;;;0.90;0.77;;;;;;;10.37;58.06;93348.38;521686;28;1934;-71
2024/04/04 00:28:24;;;;;;;2.00;0.90;;;;;;;10.37;58.00;93351.88;520895;28;784;-72
2024/04/04 00:28:39;;;;;;;1.80;1.00;;;;;;;10.29;58.15;93342.09;520232;28;833;-71
2024/04/04 00:28:55;;;;;;;1.30;1.00;;;;;;;10.26;58.47;93346.72;521733;28;985;-72
2024/04/04 00:29:11;;;;;;;1.47;1.00;;;;;;;10.21;58.17;93344.84;522047;28;801;-72
2024/04/04 00:29:27;;;;;;;1.90;1.20;;;;;;;10.18;58.58;93345.22;521969;28;955;-72
2024/04/04 00:29:42;;;;;;;1.83;1.10;;;;;;;10.13;58.64;93349.63;521941;28;795;-72
2024/04/04 00:29:58;;;;;;;1.13;1.02;;;;;;;10.11;59.19;93346.69;521971;28;855;-72
2024/04/04 00:30:13;;;;;;;1.57;1.00;;;;;;;10.11;59.25;93352.19;521984;28;910;-71
2024/04/04 00:30:29;;;;;;;1.95;1.00;;;;;;;10.13;59.55;93349.63;520115;28;1054;-71
2024/04/04 00:30:45;;;;;;;1.60;1.10;;;;;;;9.91;59.19;93309.66;522041;28;820;-72
2024/04/04 00:31:00;;;;;;;2.28;1.00;;;;;;;10.18;59.21;93343.19;521137;28;1780;-72
2024/04/04 00:31:15;;;;;;;1.90;0.90;;;;;;;10.20;59.51;93345.41;519941;28;828;-72
2024/04/04 00:31:31;;;;;;;1.15;1.05;;;;;;;10.22;59.58;93353.88;521768;28;805;-71
2024/04/04 00:31:46;;;;;;;1.30;1.10;;;;;;;10.24;59.41;93348.53;522046;28;804;-72
2024/04/04 00:32:03;;;;;;;1.80;0.90;;;;;;;10.27;59.54;93348.19;520320;28;816;-72
2024/04/04 00:32:18;;;;;;;2.53;1.00;;;;;;;10.29;59.63;93347.63;521887;28;1173;-72
2024/04/04 00:32:34;;;;;;;2.03;1.10;;;;;;;10.31;59.30;93345.78;521828;28;848;-71
2024/04/04 00:32:49;;;;;;;1.45;1.20;;;;;;;10.33;59.32;93345.97;522009;28;887;-72
2024/04/04 00:33:05;;;;;;;1.03;0.90;;;;;;;10.34;59.30;93339.19;521995;28;852;-71
2024/04/04 00:33:22;;;;;;;1.83;1.00;;;;;;;10.35;59.24;93343.41;521945;28;1963;-72
2024/04/04 00:33:37;;;;;;;2.53;1.30;;;;;;;10.37;59.34;93340.81;521996;28;843;-72
2024/04/04 00:33:53;;;;;;;1.70;1.13;;;;;;;10.39;59.22;93341.03;521836;28;1001;-72
2024/04/04 00:34:08;;;;;;;1.65;1.00;;;;;;;10.41;59.21;93337.72;522014;28;847;-72
2024/04/04 00:34:24;;;;;;;0.87;0.73;;;;;;;10.40;59.48;93339.00;521985;28;796;-72
2024/04/04 00:34:39;;;;;;;0.80;0.80;;;;;;;10.38;59.49;93342.31;521741;28;1682;-71
2024/04/04 00:34:55;;;;;;;1.70;1.10;;;;;;;10.38;59.72;93339.56;521527;28;793;-73
2024/04/04 00:35:10;;;;;;;1.63;1.10;;;;;;;10.40;59.43;93339.00;521305;28;1607;-72
2024/04/04 00:35:26;;;;;;;1.37;1.00;;;;;;;10.40;60.00;93341.75;520897;28;989;-72
2024/04/04 00:35:41;;;;;;;1.55;1.13;;;;;;;10.42;59.35;93344.69;521714;28;1153;-73
2024/04/04 00:35:57;;;;;;;1.50;1.20;;;;;;;10.43;59.55;93344.16;520091;28;849;-72
2024/04/04 00:36:13;;;;;;;1.30;1.05;;;;;;;10.44;59.28;93340.09;520215;28;824;-72
2024/04/04 00:36:28;;;;;;;1.30;0.90;;;;;;;10.44;59.14;93345.63;522040;28;840;-72
2024/04/04 00:36:44;;;;;;;1.33;1.00;;;;;;;10.45;59.14;93344.34;522012;28;788;-72
2024/04/04 00:37:01;;;;;;;1.27;1.13;;;;;;;10.47;59.35;93339.00;522024;28;1188;-72
2024/04/04 00:37:17;;;;;;;1.42;0.95;;;;;;;10.50;59.24;93339.94;521931;28;923;-71
2024/04/04 00:37:33;;;;;;;1.27;0.80;;;;;;;10.50;58.76;93340.66;522046;28;1822;-72
2024/04/04 00:37:48;;;;;;;1.57;1.10;;;;;;;10.52;58.73;93342.88;522007;28;886;-72
2024/04/04 00:38:04;;;;;;;1.52;1.10;;;;;;;10.53;58.73;93347.09;522014;28;879;-71
2024/04/04 00:38:19;;;;;;;1.10;1.00;;;;;;;10.54;59.12;93343.06;521375;28;1776;-71
2024/04/04 00:38:35;;;;;;;2.15;1.10;;;;;;;10.56;58.67;93337.72;520609;28;1139;-71
2024/04/04 00:38:51;;;;;;;2.00;1.10;;;;;;;10.52;58.30;93340.88;522106;28;856;-71
2024/04/04 00:39:07;;;;;;;1.65;1.00;;;;;;;10.48;58.27;93343.22;522048;28;781;-71
2024/04/04 00:39:22;;;;;;;1.83;1.00;;;;;;;10.43;58.44;93335.88;521914;28;1625;-71
2024/04/04 00:39:38;;;;;;;1.33;0.93;;;;;;;10.43;58.13;93341.41;522028;28;784;-71
2024/04/04 00:39:53;;;;;;;1.40;0.80;;;;;;;10.44;58.29;93342.13;521997;28;1018;-71
2024/04/04 00:40:09;;;;;;;1.83;0.93;;;;;;;10.45;58.02;93341.59;522098;28;863;-71
2024/04/04 00:40:24;;;;;;;1.45;0.98;;;;;;;10.46;57.74;93345.81;521667;28;988;-71
2024/04/04 00:40:40;;;;;;;1.20;0.90;;;;;;;10.49;57.69;93343.97;522153;28;797;-71
2024/04/04 00:40:55;;;;;;;1.70;1.00;;;;;;;10.50;57.61;93343.41;521652;28;1690;-71
2024/04/04 00:41:11;;;;;;;1.52;1.00;;;;;;;10.52;57.83;93346.38;521689;28;832;-71
2024/04/04 00:41:26;;;;;;;1.13;0.88;;;;;;;10.53;57.58;93334.03;521727;28;1227;-71
2024/04/04 00:41:42;;;;;;;1.00;0.90;;;;;;;10.54;57.91;93335.53;520010;28;792;-71
2024/04/04 00:41:57;;;;;;;1.00;0.90;;;;;;;10.56;57.62;93330.19;520797;28;1637;-71
2024/04/04 00:42:13;;;;;;;1.27;0.85;;;;;;;10.57;57.74;93339.94;519763;28;860;-71
2024/04/04 00:42:28;;;;;;;1.20;0.90;;;;;;;10.60;57.73;93338.84;519684;28;947;-71
2024/04/04 00:42:48;;;;;;;0.90;0.82;;;;;;;10.62;57.73;93335.53;519831;28;906;-71
2024/04/04 00:43:04;;;;;;;2.33;1.05;;;;;;;10.63;57.77;93337.00;520004;28;923;-71
2024/04/04 00:43:19;;;;;;;2.50;1.27;;;;;;;10.63;58.10;93342.53;521861;28;840;-71
2024/04/04 00:43:35;;;;;;;1.25;1.08;;;;;;;10.64;58.19;93335.69;521487;28;1529;-71
2024/04/04 00:43:50;;;;;;;1.20;1.00;;;;;;;10.65;58.26;93340.66;521090;28;832;-71
2024/04/04 00:44:06;;;;;;;1.63;1.00;;;;;;;10.67;58.42;93337.38;519972;28;912;-71
2024/04/04 00:44:21;;;;;;;1.33;1.17;;;;;;;10.65;58.37;93340.66;521468;28;1173;-71
2024/04/04 00:44:37;;;;;;;1.20;1.10;;;;;;;10.68;58.44;93346.41;522010;28;848;-71
2024/04/04 00:44:52;;;;;;;1.30;1.20;;;;;;;10.68;58.50;93342.34;521869;28;989;-71
2024/04/04 00:45:07;;;;;;;1.90;1.30;;;;;;;10.68;58.33;93336.81;521748;28;1068;-71
2024/04/04 00:45:23;;;;;;;1.55;1.00;;;;;;;10.70;58.33;93339.00;522069;28;761;-71
2024/04/04 00:45:38;;;;;;;1.20;1.00;;;;;;;10.71;58.48;93342.50;522726;28;1379;-71
2024/04/04 00:45:55;;;;;;;1.20;1.00;;;;;;;10.72;58.51;93339.19;521590;28;860;-71
2024/04/04 00:46:11;;;;;;;1.35;1.00;;;;;;;10.73;58.59;93345.47;521414;28;1450;-71
2024/04/04 00:46:26;;;;;;;1.53;1.13;;;;;;;10.72;58.45;93339.19;520955;28;1777;-71
2024/04/04 00:46:42;;;;;;;1.60;1.30;;;;;;;10.73;58.31;93339.94;521683;28;970;-71
2024/04/04 00:46:57;;;;;;;1.57;1.20;;;;;;;10.74;58.56;93344.19;521713;28;886;-71
2024/04/04 00:47:13;;;;;;;1.60;1.17;;;;;;;10.73;58.50;93342.69;521894;28;844;-71
2024/04/04 00:47:28;;;;;;;1.90;1.23;;;;;;;10.73;58.16;93337.91;520398;28;801;-71
2024/04/04 00:47:45;;;;;;;1.77;1.07;;;;;;;10.74;58.24;93341.41;519985;28;802;-71
2024/04/04 00:48:01;;;;;;;1.65;0.93;;;;;;;10.73;58.17;93329.63;519788;28;1346;-71
2024/04/04 00:48:16;;;;;;;1.23;1.00;;;;;;;10.73;58.08;93337.91;521722;28;895;-71
2024/04/04 00:48:32;;;;;;;1.98;1.00;;;;;;;10.70;58.23;93336.25;521836;28;812;-71
2024/04/04 00:48:47;;;;;;;2.17;1.00;;;;;;;10.64;58.22;93336.44;521883;28;832;-71
2024/04/04 00:49:03;;;;;;;1.30;1.03;;;;;;;10.61;58.15;93331.31;521931;28;834;-71
2024/04/04 00:49:19;;;;;;;1.10;1.00;;;;;;;10.59;58.18;93337.34;521669;28;1157;-71
2024/04/04 00:49:34;;;;;;;1.20;0.95;;;;;;;10.57;57.97;93334.41;521784;28;903;-71
2024/04/04 00:49:49;;;;;;;1.33;1.10;;;;;;;10.56;58.52;93338.47;519863;28;848;-71
2024/04/04 00:50:06;;;;;;;1.65;1.15;;;;;;;10.52;58.31;93332.59;519715;28;875;-71
2024/04/04 00:50:22;;;;;;;1.92;1.20;;;;;;;10.48;58.48;93329.44;521518;28;1865;-71
2024/04/04 00:50:39;;;;;;;1.20;1.10;;;;;;;10.42;58.71;93328.88;521823;28;823;-71
2024/04/04 00:50:54;;;;;;;1.10;1.00;;;;;;;10.37;58.82;93335.31;521792;28;1089;-71
2024/04/04 00:51:10;;;;;;;3.28;1.00;;;;;;;10.34;58.69;93328.16;521789;28;887;-71
2024/04/04 00:51:25;;;;;;;3.20;0.90;;;;;;;10.34;58.70;93327.41;519803;28;880;-71
2024/04/04 00:51:41;;;;;;;2.20;0.98;;;;;;;10.33;58.72;93323.19;519771;28;761;-71
2024/04/04 00:51:56;;;;;;;2.33;1.10;;;;;;;10.32;59.21;93327.97;517690;28;761;-71
2024/04/04 00:52:12;;;;;;;1.27;1.17;;;;;;;10.34;58.94;93332.91;517732;28;816;-71
2024/04/04 00:52:27;;;;;;;1.85;1.13;;;;;;;10.34;59.13;93328.16;517712;28;801;-71
2024/04/04 00:52:43;;;;;;;1.70;1.00;;;;;;;10.36;59.40;93331.09;517680;28;1169;-71
2024/04/04 00:52:58;;;;;;;1.23;0.93;;;;;;;10.36;59.43;93328.31;517757;28;856;-71
2024/04/04 00:53:14;;;;;;;1.60;0.90;;;;;;;10.30;59.42;93327.78;518056;28;812;-71
2024/04/04 00:53:29;;;;;;;2.05;0.95;;;;;;;10.24;59.33;93329.97;517366;28;1918;-71
2024/04/04 00:53:45;;;;;;;2.20;1.10;;;;;;;10.18;59.63;93326.63;516990;28;849;-72
2024/04/04 00:54:01;;;;;;;1.77;1.17;;;;;;;10.14;59.97;93325.53;517766;28;1246;-72
2024/04/04 00:54:16;;;;;;;1.58;1.02;;;;;;;10.05;59.96;93326.75;518086;28;999;-72
2024/04/04 00:54:32;;;;;;;1.10;1.00;;;;;;;10.00;60.46;93327.69;518876;28;826;-71
2024/04/04 00:54:47;;;;;;;1.02;0.93;;;;;;;9.99;60.28;93325.47;517644;28;801;-70
2024/04/04 00:55:03;;;;;;;1.60;1.00;;;;;;;9.96;60.31;93327.31;517715;28;839;-70
2024/04/04 00:55:19;;;;;;;2.30;1.38;;;;;;;9.97;60.50;93331.53;518240;28;840;-70
2024/04/04 00:55:35;;;;;;;1.48;1.20;;;;;;;9.99;60.47;93326.19;519601;28;2402;-70
2024/04/04 00:55:50;;;;;;;2.00;1.10;;;;;;;10.00;60.18;93324.94;521120;28;1131;-70
2024/04/04 00:56:06;;;;;;;2.07;1.10;;;;;;;10.00;60.51;93321.44;523701;28;831;-70
2024/04/04 00:56:22;;;;;;;1.75;0.93;;;;;;;10.00;60.42;93326.94;523933;28;940;-70
2024/04/04 00:56:37;;;;;;;2.60;1.00;;;;;;;10.02;60.54;93325.13;523876;28;760;-70
2024/04/04 00:56:52;;;;;;;1.80;0.88;;;;;;;10.03;60.35;93331.38;523874;28;891;-70
2024/04/04 00:57:09;;;;;;;0.80;0.80;;;;;;;10.04;60.17;93328.06;523825;28;807;-70
2024/04/04 00:57:24;;;;;;;0.88;0.88;;;;;;;9.82;60.16;93299.13;522813;28;1548;-70
2024/04/04 00:57:41;;;;;;;2.60;1.02;;;;;;;10.07;60.28;93326.22;520698;28;856;-70
2024/04/04 00:57:56;;;;;;;2.85;1.05;;;;;;;10.03;60.18;93331.38;521863;28;800;-70
2024/04/04 00:58:12;;;;;;;1.97;1.00;;;;;;;9.99;60.32;93331.72;519883;28;773;-70
2024/04/04 00:58:28;;;;;;;2.08;1.05;;;;;;;10.00;60.55;93335.97;519942;28;856;-70
2024/04/04 00:58:44;;;;;;;1.50;1.00;;;;;;;10.02;60.43;93327.88;519896;28;863;-70
2024/04/04 00:59:00;;;;;;;1.63;0.90;;;;;;;10.04;60.23;93328.06;520129;28;1064;-70
2024/04/04 00:59:16;;;;;;;1.88;0.85;;;;;;;10.07;60.43;93335.22;521928;28;892;-70
2024/04/04 00:59:31;;;;;;;1.90;1.07;;;;;;;10.10;60.34;93325.84;522005;28;753;-71
2024/04/04 00:59:47;;;;;;;1.52;1.05;;;;;;;10.13;60.08;93335.84;521870;28;932;-70
2024/04/04 01:00:04;;;;;;;1.08;0.88;;;;;;;10.15;60.11;93330.50;521928;28;1110;-70
2024/04/04 01:00:23;;;;;;;1.08;0.80;;;;;;;10.17;59.93;93336.22;521900;28;1016;-70
2024/04/04 01:00:39;;;;;;;1.42;0.80;;;;;;;10.19;60.02;93330.88;521852;28;1056;-70
2024/04/04 01:00:54;;;;;;;1.37;0.90;;;;;;;10.21;59.89;93330.31;521967;28;848;-70
2024/04/04 01:01:12;;;;;;;1.08;0.98;;;;;;;10.23;59.72;93334.00;520974;28;1733;-70
2024/04/04 01:01:27;;;;;;;1.13;1.03;;;;;;;10.14;59.33;93323.50;519874;28;939;-70
2024/04/04 01:01:43;;;;;;;0.98;0.93;;;;;;;10.25;59.47;93330.69;521647;28;985;-70
2024/04/04 01:01:59;;;;;;;1.05;0.95;;;;;;;10.24;59.68;93329.22;523854;28;773;-70
2024/04/04 01:02:14;;;;;;;1.80;0.97;;;;;;;10.23;59.42;93331.25;519510;28;1030;-70
2024/04/04 01:02:30;;;;;;;1.83;0.95;;;;;;;10.23;59.41;93328.50;519759;28;849;-70
2024/04/04 01:02:45;;;;;;;1.50;1.10;;;;;;;10.22;59.41;93332.53;519762;28;765;-70
2024/04/04 01:03:01;;;;;;;1.30;1.02;;;;;;;10.24;59.37;93338.25;519702;28;1588;-70
2024/04/04 01:03:16;;;;;;;1.17;1.03;;;;;;;10.26;59.53;93338.44;519647;28;1136;-70
2024/04/04 01:03:31;;;;;;;1.10;1.00;;;;;;;10.27;59.33;93333.63;519731;28;820;-70
2024/04/04 01:03:47;;;;;;;0.87;0.87;;;;;;;10.28;59.12;93335.88;520057;28;778;-70
2024/04/04 01:04:02;;;;;;;0.97;0.90;;;;;;;10.29;59.01;93334.56;521594;28;1049;-70
2024/04/04 01:04:18;;;;;;;0.93;0.85;;;;;;;10.24;59.12;93326.47;521840;28;978;-70
2024/04/04 01:04:33;;;;;;;1.20;0.97;;;;;;;10.27;59.12;93331.63;521871;28;816;-70
2024/04/04 01:04:49;;;;;;;1.20;1.00;;;;;;;10.28;59.02;93335.13;522008;28;880;-70
2024/04/04 01:05:06;;;;;;;0.85;0.85;;;;;;;10.28;58.83;93332.38;521898;28;868;-70
2024/04/04 01:05:21;;;;;;;0.95;0.90;;;;;;;10.29;58.85;93328.31;520975;28;1760;-71
2024/04/04 01:05:37;;;;;;;1.30;1.10;;;;;;;10.27;59.27;93322.59;521511;28;896;-71
2024/04/04 01:05:52;;;;;;;1.50;0.93;;;;;;;10.25;59.48;93333.44;521854;28;772;-71
2024/04/04 01:06:08;;;;;;;1.60;0.90;;;;;;;10.23;59.61;93334.00;521916;28;978;-71
2024/04/04 01:06:29;;;;;;;1.33;1.03;;;;;;;10.25;59.51;93331.44;520285;28;765;-71
2024/04/04 01:06:47;;;;;;;1.52;1.10;;;;;;;10.26;59.64;93332.91;519944;28;864;-71
2024/04/04 01:07:03;;;;;;;1.42;1.13;;;;;;;10.26;59.57;93332.91;519890;28;1195;-71
2024/04/04 01:07:19;;;;;;;1.17;1.08;;;;;;;10.15;59.49;93319.47;520313;28;1038;-71
2024/04/04 01:07:35;;;;;;;1.30;1.00;;;;;;;10.26;59.45;93327.41;521631;28;1025;-71
2024/04/04 01:07:51;;;;;;;1.27;0.90;;;;;;;10.26;59.42;93330.16;519677;28;832;-71
2024/04/04 01:08:07;;;;;;;1.30;1.10;;;;;;;10.28;59.58;93329.59;519609;28;1211;-71
2024/04/04 01:08:23;;;;;;;1.17;1.10;;;;;;;10.29;59.42;93323.53;517218;28;1657;-71
2024/04/04 01:08:38;;;;;;;1.07;1.00;;;;;;;10.30;59.35;93327.78;515360;28;857;-71
2024/04/04 01:08:54;;;;;;;1.15;1.00;;;;;;;10.32;59.49;93327.97;515300;28;1066;-70
2024/04/04 01:09:09;;;;;;;1.27;1.03;;;;;;;10.33;59.22;93326.66;515592;28;966;-71
2024/04/04 01:09:25;;;;;;;1.92;1.20;;;;;;;10.34;59.00;93327.41;516106;28;1078;-70
2024/04/04 01:09:42;;;;;;;1.70;1.00;;;;;;;10.36;58.83;93330.34;518211;28;840;-70
2024/04/04 01:10:03;;;;;;;1.08;0.98;;;;;;;10.23;58.84;93309.19;519626;28;966;-70
2024/04/04 01:10:19;;;;;;;1.30;1.00;;;;;;;10.39;58.42;93332.75;520913;28;1054;-70
2024/04/04 01:10:34;;;;;;;1.33;1.00;;;;;;;10.40;58.82;93328.69;521787;28;1172;-70
2024/04/04 01:10:50;;;;;;;0.80;0.80;;;;;;;10.41;58.66;93327.41;521998;28;868;-70
2024/04/04 01:11:05;;;;;;;0.90;0.90;;;;;;;10.43;58.98;93330.38;521137;28;1610;-70
2024/04/04 01:11:21;;;;;;;1.00;0.90;;;;;;;10.32;58.72;93314.16;520821;28;1092;-70
2024/04/04 01:11:36;;;;;;;1.30;0.80;;;;;;;10.44;58.68;93328.31;520609;28;817;-71
2024/04/04 01:11:51;;;;;;;1.40;0.90;;;;;;;10.45;58.31;93324.28;521988;28;807;-71
2024/04/04 01:12:08;;;;;;;1.10;1.00;;;;;;;10.46;58.39;93326.50;521686;28;1040;-71
2024/04/04 01:12:24;;;;;;;1.30;1.00;;;;;;;10.47;58.13;93327.22;521919;28;949;-70
2024/04/04 01:12:39;;;;;;;2.50;1.02;;;;;;;10.47;58.23;93327.97;521886;28;841;-70
2024/04/04 01:12:55;;;;;;;1.25;0.93;;;;;;;10.48;58.54;93331.47;521980;28;856;-70
2024/04/04 01:13:10;;;;;;;1.30;1.20;;;;;;;10.48;58.61;93332.19;521361;28;1269;-70
2024/04/04 01:13:26;;;;;;;1.30;1.20;;;;;;;10.46;58.40;93328.53;519770;28;1910;-70
2024/04/04 01:13:41;;;;;;;1.92;0.98;;;;;;;10.45;58.23;93332.56;520633;28;1062;-71
2024/04/04 01:13:57;;;;;;;2.17;1.03;;;;;;;10.43;58.39;93337.91;521900;28;1202;-70
2024/04/04 01:14:13;;;;;;;2.22;0.95;;;;;;;10.33;58.45;93323.91;521905;28;896;-70
2024/04/04 01:14:28;;;;;;;2.00;0.93;;;;;;;10.37;58.81;93334.59;521880;28;933;-70
2024/04/04 01:14:44;;;;;;;1.57;1.00;;;;;;;10.31;58.88;93329.22;521991;28;808;-70
2024/04/04 01:14:59;;;;;;;1.80;1.02;;;;;;;10.27;59.21;93334.38;521988;28;1246;-70
2024/04/04 01:15:15;;;;;;;1.40;1.00;;;;;;;10.21;59.44;93335.84;521102;28;1721;-70
2024/04/04 01:15:30;;;;;;;1.35;1.00;;;;;;;10.19;59.16;93333.63;520789;28;1114;-70
2024/04/04 01:15:46;;;;;;;1.80;1.10;;;;;;;10.15;59.31;93333.25;521844;28;765;-72
2024/04/04 01:16:01;;;;;;;1.30;1.20;;;;;;;10.14;59.63;93331.78;521909;28;1093;-72
2024/04/04 01:16:17;;;;;;;1.20;1.10;;;;;;;10.14;59.59;93328.28;521885;28;769;-71
2024/04/04 01:16:32;;;;;;;1.25;1.00;;;;;;;10.11;59.65;93332.16;521894;28;995;-71
2024/04/04 01:16:48;;;;;;;1.40;1.10;;;;;;;10.09;59.87;93329.91;521918;28;765;-72